sensor_id;sensor_type;location;lat;lon;timestamp;temperature;humidity
17333;DHT22;8784;50.94667800;7.08448400;2023-11-21T00:01:03;10.80;99.90
17333;DHT22;8784;50.94667800;7.08448400;2023-11-21T00:06:39;10.80;99.90
17333;DHT22;8784;50.94667800;7.08448400;2023-11-21T00:09:06;10.80;99.90
17333;DHT22;8784;50.94667800;7.08448400;2023-11-21T00:11:34;10.70;99.90
17333;DHT22;8784;50.94667800;7.08448400;2023-11-21T00:14:01;10.70;99.90
17333;DHT22;8784;50.94667800;7.08448400;2023-11-21T00:16:28;10.70;99.90
17333;DHT22;8784;50.94667800;7.08448400;2023-11-21T00:18:55;10.80;99.90
17333;DHT22;8784;50.94667800;7.08448400;2023-11-21T00:21:22;10.80;99.90
17333;DHT22;8784;50.94667800;7.08448400;2023-11-21T00:23:50;10.80;99.90
17333;DHT22;8784;50.94667800;7.08448400;2023-11-21T00:26:17;10.80;99.90
17333;DHT22;8784;50.94667800;7.08448400;2023-11-21T00:28:44;10.80;99.90
17333;DHT22;8784;50.94667800;7.08448400;2023-11-21T00:31:11;10.80;99.90
17333;DHT22;8784;50.94667800;7.08448400;2023-11-21T00:33:37;10.80;99.90
17333;DHT22;8784;50.94667800;7.08448400;2023-11-21T00:36:04;10.80;99.90
17333;DHT22;8784;50.94667800;7.08448400;2023-11-21T00:38:35;10.80;99.90
17333;DHT22;8784;50.94667800;7.08448400;2023-11-21T00:41:03;10.70;99.90
17333;DHT22;8784;50.94667800;7.08448400;2023-11-21T00:43:30;10.60;99.90
17333;DHT22;8784;50.94667800;7.08448400;2023-11-21T00:45:58;10.60;99.90
17333;DHT22;8784;50.94667800;7.08448400;2023-11-21T00:48:25;10.60;99.90
17333;DHT22;8784;50.94667800;7.08448400;2023-11-21T00:50:52;10.60;99.90
17333;DHT22;8784;50.94667800;7.08448400;2023-11-21T00:53:20;10.50;99.90
17333;DHT22;8784;50.94667800;7.08448400;2023-11-21T00:55:47;10.50;99.90
17333;DHT22;8784;50.94667800;7.08448400;2023-11-21T00:58:15;10.50;99.90
17333;DHT22;8784;50.94667800;7.08448400;2023-11-21T01:00:42;10.40;99.90
17333;DHT22;8784;50.94667800;7.08448400;2023-11-21T01:03:09;10.40;99.90
17333;DHT22;8784;50.94667800;7.08448400;2023-11-21T01:05:36;10.30;99.90
17333;DHT22;8784;50.94667800;7.08448400;2023-11-21T01:08:03;10.30;99.90
17333;DHT22;8784;50.94667800;7.08448400;2023-11-21T01:10:31;10.30;99.90
17333;DHT22;8784;50.94667800;7.08448400;2023-11-21T01:12:59;10.30;99.90
17333;DHT22;8784;50.94667800;7.08448400;2023-11-21T01:15:28;10.30;99.90
17333;DHT22;8784;50.94667800;7.08448400;2023-11-21T01:17:55;10.30;99.90
17333;DHT22;8784;50.94667800;7.08448400;2023-11-21T01:20:22;10.30;99.90
17333;DHT22;8784;50.94667800;7.08448400;2023-11-21T01:22:49;10.20;99.90
17333;DHT22;8784;50.94667800;7.08448400;2023-11-21T01:25:16;10.20;99.90
17333;DHT22;8784;50.94667800;7.08448400;2023-11-21T01:27:43;10.10;99.90
17333;DHT22;8784;50.94667800;7.08448400;2023-11-21T01:30:10;10.10;99.90
17333;DHT22;8784;50.94667800;7.08448400;2023-11-21T01:32:39;10.00;99.90
17333;DHT22;8784;50.94667800;7.08448400;2023-11-21T01:35:06;10.00;99.90
17333;DHT22;8784;50.94667800;7.08448400;2023-11-21T01:37:34;10.00;99.90
17333;DHT22;8784;50.94667800;7.08448400;2023-11-21T01:40:01;10.10;99.90
17333;DHT22;8784;50.94667800;7.08448400;2023-11-21T01:42:30;10.00;99.90
17333;DHT22;8784;50.94667800;7.08448400;2023-11-21T01:44:57;10.10;99.90
17333;DHT22;8784;50.94667800;7.08448400;2023-11-21T01:47:25;10.10;99.90
17333;DHT22;8784;50.94667800;7.08448400;2023-11-21T01:49:53;10.10;99.90
17333;DHT22;8784;50.94667800;7.08448400;2023-11-21T01:52:20;10.00;99.90
17333;DHT22;8784;50.94667800;7.08448400;2023-11-21T01:54:47;10.00;99.90
17333;DHT22;8784;50.94667800;7.08448400;2023-11-21T01:57:14;9.90;99.90
17333;DHT22;8784;50.94667800;7.08448400;2023-11-21T01:59:41;9.90;99.90
17333;DHT22;8784;50.94667800;7.08448400;2023-11-21T02:02:09;9.90;99.90
17333;DHT22;8784;50.94667800;7.08448400;2023-11-21T02:04:36;9.90;99.90
17333;DHT22;8784;50.94667800;7.08448400;2023-11-21T02:07:05;10.00;99.90
17333;DHT22;8784;50.94667800;7.08448400;2023-11-21T02:09:32;10.00;99.90
17333;DHT22;8784;50.94667800;7.08448400;2023-11-21T02:11:59;10.00;99.90
17333;DHT22;8784;50.94667800;7.08448400;2023-11-21T02:14:27;10.00;99.90
17333;DHT22;8784;50.94667800;7.08448400;2023-11-21T02:16:54;10.00;99.90
17333;DHT22;8784;50.94667800;7.08448400;2023-11-21T02:19:22;9.90;99.90
17333;DHT22;8784;50.94667800;7.08448400;2023-11-21T02:21:51;9.80;99.90
17333;DHT22;8784;50.94667800;7.08448400;2023-11-21T02:24:20;9.80;99.90
17333;DHT22;8784;50.94667800;7.08448400;2023-11-21T02:26:48;9.80;99.90
17333;DHT22;8784;50.94667800;7.08448400;2023-11-21T02:29:16;9.70;99.90
17333;DHT22;8784;50.94667800;7.08448400;2023-11-21T02:31:45;9.70;99.90
17333;DHT22;8784;50.94667800;7.08448400;2023-11-21T02:34:14;9.70;99.90
17333;DHT22;8784;50.94667800;7.08448400;2023-11-21T02:36:41;9.60;99.90
17333;DHT22;8784;50.94667800;7.08448400;2023-11-21T02:39:09;9.60;99.90
17333;DHT22;8784;50.94667800;7.08448400;2023-11-21T02:41:38;9.70;99.90
17333;DHT22;8784;50.94667800;7.08448400;2023-11-21T02:44:05;9.70;99.90
17333;DHT22;8784;50.94667800;7.08448400;2023-11-21T02:46:33;9.70;99.90
17333;DHT22;8784;50.94667800;7.08448400;2023-11-21T02:49:00;9.70;99.90
17333;DHT22;8784;50.94667800;7.08448400;2023-11-21T02:51:27;9.70;99.90
17333;DHT22;8784;50.94667800;7.08448400;2023-11-21T02:53:54;9.80;99.90
17333;DHT22;8784;50.94667800;7.08448400;2023-11-21T02:56:24;9.80;99.90
17333;DHT22;8784;50.94667800;7.08448400;2023-11-21T02:58:55;9.70;99.90
17333;DHT22;8784;50.94667800;7.08448400;2023-11-21T03:01:22;9.80;99.90
17333;DHT22;8784;50.94667800;7.08448400;2023-11-21T03:03:49;9.80;99.90
17333;DHT22;8784;50.94667800;7.08448400;2023-11-21T03:06:16;9.80;99.90
17333;DHT22;8784;50.94667800;7.08448400;2023-11-21T03:08:43;9.80;99.90
17333;DHT22;8784;50.94667800;7.08448400;2023-11-21T03:11:10;9.80;99.90
17333;DHT22;8784;50.94667800;7.08448400;2023-11-21T03:13:38;9.90;99.90
17333;DHT22;8784;50.94667800;7.08448400;2023-11-21T03:16:08;9.90;99.90
17333;DHT22;8784;50.94667800;7.08448400;2023-11-21T03:18:36;9.90;99.90
17333;DHT22;8784;50.94667800;7.08448400;2023-11-21T03:21:03;9.90;99.90
17333;DHT22;8784;50.94667800;7.08448400;2023-11-21T03:23:30;9.90;99.90
17333;DHT22;8784;50.94667800;7.08448400;2023-11-21T03:25:57;10.00;99.90
17333;DHT22;8784;50.94667800;7.08448400;2023-11-21T03:28:25;10.00;99.90
17333;DHT22;8784;50.94667800;7.08448400;2023-11-21T03:30:52;10.00;99.90
17333;DHT22;8784;50.94667800;7.08448400;2023-11-21T03:33:20;10.10;99.90
17333;DHT22;8784;50.94667800;7.08448400;2023-11-21T03:35:48;10.10;99.90
17333;DHT22;8784;50.94667800;7.08448400;2023-11-21T03:38:15;10.20;99.90
17333;DHT22;8784;50.94667800;7.08448400;2023-11-21T03:40:42;10.20;99.90
17333;DHT22;8784;50.94667800;7.08448400;2023-11-21T03:43:09;10.20;99.90
17333;DHT22;8784;50.94667800;7.08448400;2023-11-21T03:45:36;10.20;99.90
17333;DHT22;8784;50.94667800;7.08448400;2023-11-21T03:48:03;10.20;99.90
17333;DHT22;8784;50.94667800;7.08448400;2023-11-21T03:50:31;10.20;99.90
17333;DHT22;8784;50.94667800;7.08448400;2023-11-21T03:52:57;10.30;99.90
17333;DHT22;8784;50.94667800;7.08448400;2023-11-21T03:55:24;10.20;99.90
17333;DHT22;8784;50.94667800;7.08448400;2023-11-21T03:57:51;10.30;99.90
17333;DHT22;8784;50.94667800;7.08448400;2023-11-21T04:00:18;10.30;99.90
17333;DHT22;8784;50.94667800;7.08448400;2023-11-21T04:02:46;10.20;99.90
17333;DHT22;8784;50.94667800;7.08448400;2023-11-21T04:05:13;10.10;99.90
17333;DHT22;8784;50.94667800;7.08448400;2023-11-21T04:07:41;10.00;99.90
17333;DHT22;8784;50.94667800;7.08448400;2023-11-21T04:10:08;10.00;99.90
17333;DHT22;8784;50.94667800;7.08448400;2023-11-21T04:12:38;9.90;99.90
17333;DHT22;8784;50.94667800;7.08448400;2023-11-21T04:15:05;10.00;99.90
17333;DHT22;8784;50.94667800;7.08448400;2023-11-21T04:17:34;10.00;99.90
17333;DHT22;8784;50.94667800;7.08448400;2023-11-21T04:20:02;10.00;99.90
17333;DHT22;8784;50.94667800;7.08448400;2023-11-21T04:22:29;10.10;99.90
17333;DHT22;8784;50.94667800;7.08448400;2023-11-21T04:24:57;10.10;99.90
17333;DHT22;8784;50.94667800;7.08448400;2023-11-21T04:27:24;10.10;99.90
17333;DHT22;8784;50.94667800;7.08448400;2023-11-21T04:29:51;10.10;99.90
17333;DHT22;8784;50.94667800;7.08448400;2023-11-21T04:32:18;10.10;99.90
17333;DHT22;8784;50.94667800;7.08448400;2023-11-21T04:34:44;10.10;99.90
17333;DHT22;8784;50.94667800;7.08448400;2023-11-21T04:37:11;10.10;99.90
17333;DHT22;8784;50.94667800;7.08448400;2023-11-21T04:39:38;10.10;99.90
17333;DHT22;8784;50.94667800;7.08448400;2023-11-21T04:42:07;10.20;99.90
17333;DHT22;8784;50.94667800;7.08448400;2023-11-21T04:44:34;10.10;99.90
17333;DHT22;8784;50.94667800;7.08448400;2023-11-21T04:47:00;10.10;99.90
17333;DHT22;8784;50.94667800;7.08448400;2023-11-21T04:49:30;10.10;99.90
17333;DHT22;8784;50.94667800;7.08448400;2023-11-21T04:51:57;10.10;99.90
17333;DHT22;8784;50.94667800;7.08448400;2023-11-21T04:54:24;10.10;99.90
17333;DHT22;8784;50.94667800;7.08448400;2023-11-21T04:56:51;10.20;99.90
17333;DHT22;8784;50.94667800;7.08448400;2023-11-21T04:59:19;10.20;99.90
17333;DHT22;8784;50.94667800;7.08448400;2023-11-21T05:01:46;10.10;99.90
17333;DHT22;8784;50.94667800;7.08448400;2023-11-21T05:04:13;10.20;99.90
17333;DHT22;8784;50.94667800;7.08448400;2023-11-21T05:06:40;10.20;99.90
17333;DHT22;8784;50.94667800;7.08448400;2023-11-21T05:09:07;10.20;99.90
17333;DHT22;8784;50.94667800;7.08448400;2023-11-21T05:11:37;10.20;99.90
17333;DHT22;8784;50.94667800;7.08448400;2023-11-21T05:14:04;10.20;99.90
17333;DHT22;8784;50.94667800;7.08448400;2023-11-21T05:16:34;10.20;99.90
17333;DHT22;8784;50.94667800;7.08448400;2023-11-21T05:19:01;10.10;99.90
17333;DHT22;8784;50.94667800;7.08448400;2023-11-21T05:21:30;10.10;99.90
17333;DHT22;8784;50.94667800;7.08448400;2023-11-21T05:23:57;10.10;99.90
17333;DHT22;8784;50.94667800;7.08448400;2023-11-21T05:26:24;10.10;99.90
17333;DHT22;8784;50.94667800;7.08448400;2023-11-21T05:28:50;10.10;99.90
17333;DHT22;8784;50.94667800;7.08448400;2023-11-21T05:31:17;10.10;99.90
17333;DHT22;8784;50.94667800;7.08448400;2023-11-21T05:33:45;10.10;99.90
17333;DHT22;8784;50.94667800;7.08448400;2023-11-21T05:36:12;10.10;99.90
17333;DHT22;8784;50.94667800;7.08448400;2023-11-21T05:38:39;10.10;99.90
17333;DHT22;8784;50.94667800;7.08448400;2023-11-21T05:41:07;10.00;99.90
17333;DHT22;8784;50.94667800;7.08448400;2023-11-21T05:43:36;10.00;99.90
17333;DHT22;8784;50.94667800;7.08448400;2023-11-21T05:46:03;10.10;99.90
17333;DHT22;8784;50.94667800;7.08448400;2023-11-21T05:48:31;10.10;99.90
17333;DHT22;8784;50.94667800;7.08448400;2023-11-21T05:50:59;10.10;99.90
17333;DHT22;8784;50.94667800;7.08448400;2023-11-21T05:53:27;10.10;99.90
17333;DHT22;8784;50.94667800;7.08448400;2023-11-21T05:55:53;10.10;99.90
17333;DHT22;8784;50.94667800;7.08448400;2023-11-21T05:58:20;10.10;99.90
17333;DHT22;8784;50.94667800;7.08448400;2023-11-21T06:00:46;10.20;99.90
17333;DHT22;8784;50.94667800;7.08448400;2023-11-21T06:03:13;10.20;99.90
17333;DHT22;8784;50.94667800;7.08448400;2023-11-21T06:05:40;10.20;99.90
17333;DHT22;8784;50.94667800;7.08448400;2023-11-21T06:08:09;10.20;99.90
17333;DHT22;8784;50.94667800;7.08448400;2023-11-21T06:10:36;10.20;99.90
17333;DHT22;8784;50.94667800;7.08448400;2023-11-21T06:13:03;10.20;99.90
17333;DHT22;8784;50.94667800;7.08448400;2023-11-21T06:15:30;10.30;99.90
17333;DHT22;8784;50.94667800;7.08448400;2023-11-21T06:17:57;10.30;99.90
17333;DHT22;8784;50.94667800;7.08448400;2023-11-21T06:20:25;10.30;99.90
17333;DHT22;8784;50.94667800;7.08448400;2023-11-21T06:22:53;10.40;99.90
17333;DHT22;8784;50.94667800;7.08448400;2023-11-21T06:25:22;10.40;99.90
17333;DHT22;8784;50.94667800;7.08448400;2023-11-21T06:27:49;10.30;99.90
17333;DHT22;8784;50.94667800;7.08448400;2023-11-21T06:30:17;10.40;99.90
17333;DHT22;8784;50.94667800;7.08448400;2023-11-21T06:32:45;10.40;99.90
17333;DHT22;8784;50.94667800;7.08448400;2023-11-21T06:35:12;10.50;99.90
17333;DHT22;8784;50.94667800;7.08448400;2023-11-21T06:37:40;10.40;99.90
17333;DHT22;8784;50.94667800;7.08448400;2023-11-21T06:40:13;10.50;99.90
17333;DHT22;8784;50.94667800;7.08448400;2023-11-21T06:42:42;10.40;99.90
17333;DHT22;8784;50.94667800;7.08448400;2023-11-21T06:45:10;10.50;99.90
17333;DHT22;8784;50.94667800;7.08448400;2023-11-21T06:47:37;10.50;99.90
17333;DHT22;8784;50.94667800;7.08448400;2023-11-21T06:50:05;10.60;99.90
17333;DHT22;8784;50.94667800;7.08448400;2023-11-21T06:52:32;10.50;99.90
17333;DHT22;8784;50.94667800;7.08448400;2023-11-21T06:54:59;10.60;99.90
17333;DHT22;8784;50.94667800;7.08448400;2023-11-21T06:57:26;10.60;99.90
17333;DHT22;8784;50.94667800;7.08448400;2023-11-21T06:59:54;10.60;99.90
17333;DHT22;8784;50.94667800;7.08448400;2023-11-21T07:02:22;10.60;99.90
17333;DHT22;8784;50.94667800;7.08448400;2023-11-21T07:04:49;10.60;99.90
17333;DHT22;8784;50.94667800;7.08448400;2023-11-21T07:07:18;10.50;99.90
17333;DHT22;8784;50.94667800;7.08448400;2023-11-21T07:09:45;10.40;99.90
17333;DHT22;8784;50.94667800;7.08448400;2023-11-21T07:12:13;10.40;99.90
17333;DHT22;8784;50.94667800;7.08448400;2023-11-21T07:14:40;10.40;99.90
17333;DHT22;8784;50.94667800;7.08448400;2023-11-21T07:17:11;10.50;99.90
17333;DHT22;8784;50.94667800;7.08448400;2023-11-21T07:19:38;10.40;99.90
17333;DHT22;8784;50.94667800;7.08448400;2023-11-21T07:22:07;10.40;99.90
17333;DHT22;8784;50.94667800;7.08448400;2023-11-21T07:24:34;10.40;99.90
17333;DHT22;8784;50.94667800;7.08448400;2023-11-21T07:27:02;10.40;99.90
17333;DHT22;8784;50.94667800;7.08448400;2023-11-21T07:29:30;10.40;99.90
17333;DHT22;8784;50.94667800;7.08448400;2023-11-21T07:31:57;10.40;99.90
17333;DHT22;8784;50.94667800;7.08448400;2023-11-21T07:34:25;10.50;99.90
17333;DHT22;8784;50.94667800;7.08448400;2023-11-21T07:36:52;10.60;99.90
17333;DHT22;8784;50.94667800;7.08448400;2023-11-21T07:39:19;10.60;99.90
17333;DHT22;8784;50.94667800;7.08448400;2023-11-21T07:41:46;10.60;99.90
17333;DHT22;8784;50.94667800;7.08448400;2023-11-21T07:44:16;10.60;99.90
17333;DHT22;8784;50.94667800;7.08448400;2023-11-21T07:46:43;10.60;99.90
17333;DHT22;8784;50.94667800;7.08448400;2023-11-21T07:49:11;10.60;99.90
17333;DHT22;8784;50.94667800;7.08448400;2023-11-21T07:51:41;10.70;99.90
17333;DHT22;8784;50.94667800;7.08448400;2023-11-21T07:54:09;10.70;99.90
17333;DHT22;8784;50.94667800;7.08448400;2023-11-21T07:56:36;10.70;99.90
17333;DHT22;8784;50.94667800;7.08448400;2023-11-21T07:59:03;10.70;99.90
17333;DHT22;8784;50.94667800;7.08448400;2023-11-21T08:01:30;10.70;99.90
17333;DHT22;8784;50.94667800;7.08448400;2023-11-21T08:03:57;10.80;99.90
17333;DHT22;8784;50.94667800;7.08448400;2023-11-21T08:06:27;10.80;99.90
17333;DHT22;8784;50.94667800;7.08448400;2023-11-21T08:08:55;10.80;99.90
17333;DHT22;8784;50.94667800;7.08448400;2023-11-21T08:11:22;10.90;99.90
17333;DHT22;8784;50.94667800;7.08448400;2023-11-21T08:13:49;10.90;99.90
17333;DHT22;8784;50.94667800;7.08448400;2023-11-21T08:16:16;10.90;99.90
17333;DHT22;8784;50.94667800;7.08448400;2023-11-21T08:18:43;11.00;99.90
17333;DHT22;8784;50.94667800;7.08448400;2023-11-21T08:21:12;11.00;99.90
17333;DHT22;8784;50.94667800;7.08448400;2023-11-21T08:23:39;11.00;99.90
17333;DHT22;8784;50.94667800;7.08448400;2023-11-21T08:26:07;11.10;99.90
17333;DHT22;8784;50.94667800;7.08448400;2023-11-21T08:28:34;11.10;99.90
17333;DHT22;8784;50.94667800;7.08448400;2023-11-21T08:31:01;11.10;99.90
17333;DHT22;8784;50.94667800;7.08448400;2023-11-21T08:33:28;11.20;99.90
17333;DHT22;8784;50.94667800;7.08448400;2023-11-21T08:35:55;11.30;99.90
17333;DHT22;8784;50.94667800;7.08448400;2023-11-21T08:38:22;11.30;99.90
17333;DHT22;8784;50.94667800;7.08448400;2023-11-21T08:40:49;11.30;99.90
17333;DHT22;8784;50.94667800;7.08448400;2023-11-21T08:43:17;11.40;99.90
17333;DHT22;8784;50.94667800;7.08448400;2023-11-21T08:45:45;11.40;99.90
17333;DHT22;8784;50.94667800;7.08448400;2023-11-21T08:48:12;11.40;99.90
17333;DHT22;8784;50.94667800;7.08448400;2023-11-21T08:50:39;11.50;99.90
17333;DHT22;8784;50.94667800;7.08448400;2023-11-21T08:53:06;11.50;99.90
17333;DHT22;8784;50.94667800;7.08448400;2023-11-21T08:55:33;11.50;99.90
17333;DHT22;8784;50.94667800;7.08448400;2023-11-21T08:58:02;11.50;99.90
17333;DHT22;8784;50.94667800;7.08448400;2023-11-21T09:00:32;11.50;99.90
17333;DHT22;8784;50.94667800;7.08448400;2023-11-21T09:02:59;11.60;99.90
17333;DHT22;8784;50.94667800;7.08448400;2023-11-21T09:05:27;11.60;99.90
17333;DHT22;8784;50.94667800;7.08448400;2023-11-21T09:07:54;11.50;99.90
17333;DHT22;8784;50.94667800;7.08448400;2023-11-21T09:10:21;11.60;99.90
17333;DHT22;8784;50.94667800;7.08448400;2023-11-21T09:12:50;11.60;99.90
17333;DHT22;8784;50.94667800;7.08448400;2023-11-21T09:15:18;11.70;99.90
17333;DHT22;8784;50.94667800;7.08448400;2023-11-21T09:17:47;11.70;99.90
17333;DHT22;8784;50.94667800;7.08448400;2023-11-21T09:20:14;11.70;99.90
17333;DHT22;8784;50.94667800;7.08448400;2023-11-21T09:22:41;11.70;99.90
17333;DHT22;8784;50.94667800;7.08448400;2023-11-21T09:25:10;11.70;99.90
17333;DHT22;8784;50.94667800;7.08448400;2023-11-21T09:27:38;11.80;99.90
17333;DHT22;8784;50.94667800;7.08448400;2023-11-21T09:30:06;11.80;99.90
17333;DHT22;8784;50.94667800;7.08448400;2023-11-21T09:32:35;11.80;99.90
17333;DHT22;8784;50.94667800;7.08448400;2023-11-21T09:35:04;11.80;99.90
17333;DHT22;8784;50.94667800;7.08448400;2023-11-21T09:37:34;11.80;99.90
17333;DHT22;8784;50.94667800;7.08448400;2023-11-21T09:40:03;11.70;99.90
17333;DHT22;8784;50.94667800;7.08448400;2023-11-21T09:42:35;11.80;99.90
17333;DHT22;8784;50.94667800;7.08448400;2023-11-21T09:45:05;11.80;99.90
17333;DHT22;8784;50.94667800;7.08448400;2023-11-21T09:47:38;11.80;99.90
17333;DHT22;8784;50.94667800;7.08448400;2023-11-21T09:50:07;11.80;99.90
17333;DHT22;8784;50.94667800;7.08448400;2023-11-21T09:52:41;11.70;99.90
17333;DHT22;8784;50.94667800;7.08448400;2023-11-21T09:55:10;11.70;99.90
17333;DHT22;8784;50.94667800;7.08448400;2023-11-21T09:57:41;11.80;99.90
17333;DHT22;8784;50.94667800;7.08448400;2023-11-21T10:00:10;11.80;99.90
17333;DHT22;8784;50.94667800;7.08448400;2023-11-21T10:02:39;11.80;99.90
17333;DHT22;8784;50.94667800;7.08448400;2023-11-21T10:05:08;11.80;99.90
17333;DHT22;8784;50.94667800;7.08448400;2023-11-21T10:07:39;11.90;99.90
17333;DHT22;8784;50.94667800;7.08448400;2023-11-21T10:10:08;12.00;99.90
17333;DHT22;8784;50.94667800;7.08448400;2023-11-21T10:12:35;12.00;99.90
17333;DHT22;8784;50.94667800;7.08448400;2023-11-21T10:15:08;12.10;99.90
17333;DHT22;8784;50.94667800;7.08448400;2023-11-21T10:17:38;12.10;99.90
17333;DHT22;8784;50.94667800;7.08448400;2023-11-21T10:20:11;12.20;99.90
17333;DHT22;8784;50.94667800;7.08448400;2023-11-21T10:22:39;12.30;99.90
17333;DHT22;8784;50.94667800;7.08448400;2023-11-21T10:25:11;12.30;99.90
17333;DHT22;8784;50.94667800;7.08448400;2023-11-21T10:27:40;12.30;99.90
17333;DHT22;8784;50.94667800;7.08448400;2023-11-21T10:30:09;12.30;99.90
17333;DHT22;8784;50.94667800;7.08448400;2023-11-21T10:32:37;12.30;99.90
17333;DHT22;8784;50.94667800;7.08448400;2023-11-21T10:35:07;12.40;99.90
17333;DHT22;8784;50.94667800;7.08448400;2023-11-21T10:37:37;12.40;99.90
17333;DHT22;8784;50.94667800;7.08448400;2023-11-21T10:40:06;12.40;99.90
17333;DHT22;8784;50.94667800;7.08448400;2023-11-21T10:42:34;12.40;99.90
17333;DHT22;8784;50.94667800;7.08448400;2023-11-21T10:45:03;12.40;99.90
17333;DHT22;8784;50.94667800;7.08448400;2023-11-21T10:47:31;12.50;99.90
17333;DHT22;8784;50.94667800;7.08448400;2023-11-21T10:50:00;12.50;99.90
17333;DHT22;8784;50.94667800;7.08448400;2023-11-21T10:52:27;12.50;99.90
17333;DHT22;8784;50.94667800;7.08448400;2023-11-21T10:54:56;12.50;99.90
17333;DHT22;8784;50.94667800;7.08448400;2023-11-21T10:57:25;12.40;99.90
17333;DHT22;8784;50.94667800;7.08448400;2023-11-21T10:59:54;12.40;99.90
17333;DHT22;8784;50.94667800;7.08448400;2023-11-21T11:02:24;12.40;99.90
17333;DHT22;8784;50.94667800;7.08448400;2023-11-21T11:04:54;12.40;99.90
17333;DHT22;8784;50.94667800;7.08448400;2023-11-21T11:07:25;12.40;99.90
17333;DHT22;8784;50.94667800;7.08448400;2023-11-21T11:10:00;12.50;99.90
17333;DHT22;8784;50.94667800;7.08448400;2023-11-21T11:12:27;12.40;99.90
17333;DHT22;8784;50.94667800;7.08448400;2023-11-21T11:14:55;12.40;99.90
17333;DHT22;8784;50.94667800;7.08448400;2023-11-21T11:17:23;12.40;99.90
17333;DHT22;8784;50.94667800;7.08448400;2023-11-21T11:19:50;12.40;99.90
17333;DHT22;8784;50.94667800;7.08448400;2023-11-21T11:22:27;12.40;99.90
17333;DHT22;8784;50.94667800;7.08448400;2023-11-21T11:25:17;12.40;99.90
17333;DHT22;8784;50.94667800;7.08448400;2023-11-21T11:27:54;12.40;99.90
17333;DHT22;8784;50.94667800;7.08448400;2023-11-21T11:30:32;12.40;99.90
17333;DHT22;8784;50.94667800;7.08448400;2023-11-21T11:33:09;12.50;99.90
17333;DHT22;8784;50.94667800;7.08448400;2023-11-21T11:35:44;12.60;99.90
17333;DHT22;8784;50.94667800;7.08448400;2023-11-21T11:38:14;12.60;99.90
17333;DHT22;8784;50.94667800;7.08448400;2023-11-21T11:40:45;12.70;99.90
17333;DHT22;8784;50.94667800;7.08448400;2023-11-21T11:43:12;12.80;99.90
17333;DHT22;8784;50.94667800;7.08448400;2023-11-21T11:45:39;12.90;99.90
17333;DHT22;8784;50.94667800;7.08448400;2023-11-21T11:48:10;12.90;99.90
17333;DHT22;8784;50.94667800;7.08448400;2023-11-21T11:50:43;12.90;99.90
17333;DHT22;8784;50.94667800;7.08448400;2023-11-21T11:53:33;12.90;99.90
17333;DHT22;8784;50.94667800;7.08448400;2023-11-21T11:56:21;12.90;99.90
17333;DHT22;8784;50.94667800;7.08448400;2023-11-21T11:58:49;12.90;99.90
17333;DHT22;8784;50.94667800;7.08448400;2023-11-21T12:01:18;12.90;99.90
17333;DHT22;8784;50.94667800;7.08448400;2023-11-21T12:04:23;12.90;99.90
17333;DHT22;8784;50.94667800;7.08448400;2023-11-21T12:06:59;12.90;99.90
17333;DHT22;8784;50.94667800;7.08448400;2023-11-21T12:09:28;12.80;99.90
17333;DHT22;8784;50.94667800;7.08448400;2023-11-21T12:11:58;12.80;99.90
17333;DHT22;8784;50.94667800;7.08448400;2023-11-21T12:14:25;12.80;99.90
17333;DHT22;8784;50.94667800;7.08448400;2023-11-21T12:16:53;12.80;99.90
17333;DHT22;8784;50.94667800;7.08448400;2023-11-21T12:19:20;12.80;99.90
17333;DHT22;8784;50.94667800;7.08448400;2023-11-21T12:21:48;12.90;99.90
17333;DHT22;8784;50.94667800;7.08448400;2023-11-21T12:24:16;13.00;99.90
17333;DHT22;8784;50.94667800;7.08448400;2023-11-21T12:26:43;13.00;99.90
17333;DHT22;8784;50.94667800;7.08448400;2023-11-21T12:29:12;13.00;99.90
17333;DHT22;8784;50.94667800;7.08448400;2023-11-21T12:31:39;13.00;99.90
17333;DHT22;8784;50.94667800;7.08448400;2023-11-21T12:34:06;13.10;99.90
17333;DHT22;8784;50.94667800;7.08448400;2023-11-21T12:36:37;13.00;99.90
17333;DHT22;8784;50.94667800;7.08448400;2023-11-21T12:39:04;13.20;99.90
17333;DHT22;8784;50.94667800;7.08448400;2023-11-21T12:41:34;13.30;99.90
17333;DHT22;8784;50.94667800;7.08448400;2023-11-21T12:44:01;13.30;99.90
17333;DHT22;8784;50.94667800;7.08448400;2023-11-21T12:46:30;13.30;99.90
17333;DHT22;8784;50.94667800;7.08448400;2023-11-21T12:48:59;13.30;99.90
17333;DHT22;8784;50.94667800;7.08448400;2023-11-21T12:51:27;13.30;99.90
17333;DHT22;8784;50.94667800;7.08448400;2023-11-21T12:53:55;13.20;99.90
17333;DHT22;8784;50.94667800;7.08448400;2023-11-21T12:56:24;13.20;99.90
17333;DHT22;8784;50.94667800;7.08448400;2023-11-21T12:58:54;13.20;99.90
17333;DHT22;8784;50.94667800;7.08448400;2023-11-21T13:01:25;13.20;99.90
17333;DHT22;8784;50.94667800;7.08448400;2023-11-21T13:03:57;13.20;99.90
17333;DHT22;8784;50.94667800;7.08448400;2023-11-21T13:06:25;13.20;99.90
17333;DHT22;8784;50.94667800;7.08448400;2023-11-21T13:08:52;13.10;99.90
17333;DHT22;8784;50.94667800;7.08448400;2023-11-21T13:11:22;13.10;99.90
17333;DHT22;8784;50.94667800;7.08448400;2023-11-21T13:13:52;13.10;99.90
17333;DHT22;8784;50.94667800;7.08448400;2023-11-21T13:16:20;13.10;99.90
17333;DHT22;8784;50.94667800;7.08448400;2023-11-21T13:18:47;13.10;99.90
17333;DHT22;8784;50.94667800;7.08448400;2023-11-21T13:21:16;13.10;99.90
17333;DHT22;8784;50.94667800;7.08448400;2023-11-21T13:23:43;13.10;99.90
17333;DHT22;8784;50.94667800;7.08448400;2023-11-21T13:26:11;13.10;99.90
17333;DHT22;8784;50.94667800;7.08448400;2023-11-21T13:28:40;13.10;99.90
17333;DHT22;8784;50.94667800;7.08448400;2023-11-21T13:31:11;13.10;99.90
17333;DHT22;8784;50.94667800;7.08448400;2023-11-21T13:33:47;13.10;99.90
17333;DHT22;8784;50.94667800;7.08448400;2023-11-21T13:36:21;13.10;99.90
17333;DHT22;8784;50.94667800;7.08448400;2023-11-21T13:38:49;13.10;99.90
17333;DHT22;8784;50.94667800;7.08448400;2023-11-21T13:41:18;13.10;99.90
17333;DHT22;8784;50.94667800;7.08448400;2023-11-21T13:43:45;13.10;99.90